Time;durP1;ratioP1;P1;durP2;ratioP2;P2;SDS_P1;SDS_P2;PMS_P1;PMS_P2;Temp;Humidity;BMP_temperature;BMP_pressure;BME280_temperature;BME280_humidity;BME280_pressure;Samples;Min_cycle;Max_cycle;Signal;HPM_P1;HPM_P2
2022/03/06 00:02:03;;;;;;;13.27;8.80;;;0.10;99.90;0.30;96902.00;;;;5092570;28;20437;-65
2022/03/06 00:04:52;;;;;;;16.47;7.00;;;0.10;99.90;0.40;96910.00;;;;5107765;28;20829;-65
2022/03/06 00:07:41;;;;;;;11.90;8.03;;;0.00;99.90;0.60;96906.00;;;;5099987;28;20434;-65
2022/03/06 00:10:31;;;;;;;12.53;8.33;;;0.00;99.90;0.70;96911.00;;;;5099645;28;21010;-65
2022/03/06 00:13:20;;;;;;;12.63;9.30;;;0.00;99.90;0.70;96922.00;;;;5093232;28;20422;-65
2022/03/06 00:16:09;;;;;;;13.87;8.80;;;0.00;99.90;0.50;96911.00;;;;5111853;27;20421;-65
2022/03/06 00:18:57;;;;;;;13.80;8.63;;;0.00;99.90;0.30;96904.00;;;;5105085;27;20781;-65
2022/03/06 00:21:46;;;;;;;12.90;8.07;;;0.00;99.90;0.50;96908.00;;;;5091417;28;20417;-65
2022/03/06 00:24:35;;;;;;;12.23;8.13;;;0.00;99.90;0.60;96910.00;;;;5091172;28;20441;-65
2022/03/06 00:27:25;;;;;;;13.33;7.47;;;0.00;99.90;0.60;96911.00;;;;5097893;28;20414;-65
2022/03/06 00:30:14;;;;;;;19.07;9.83;;;0.00;99.90;0.40;96909.00;;;;5100809;28;20972;-65
2022/03/06 00:33:05;;;;;;;13.63;8.80;;;0.00;99.90;0.50;96903.00;;;;5117016;27;20420;-65
2022/03/06 00:35:53;;;;;;;12.27;8.60;;;0.00;99.90;0.50;96904.00;;;;5111520;27;20955;-65
2022/03/06 00:38:42;;;;;;;20.00;9.47;;;0.00;99.90;0.30;96894.00;;;;5106709;27;20826;-65
2022/03/06 00:41:31;;;;;;;12.83;7.93;;;-0.10;99.90;0.30;96898.00;;;;5093846;28;20429;-65
2022/03/06 00:44:21;;;;;;;14.87;8.63;;;-0.10;99.90;0.30;96902.00;;;;5091317;28;20460;-65
2022/03/06 00:47:10;;;;;;;12.03;8.00;;;-0.10;99.90;0.30;96904.00;;;;5102314;28;20418;-65
2022/03/06 00:49:59;;;;;;;9.63;6.77;;;-0.20;99.90;0.40;96907.00;;;;5099325;28;21013;-65
2022/03/06 00:52:48;;;;;;;12.40;7.67;;;-0.20;99.90;0.50;96906.00;;;;5095150;28;20428;-65
2022/03/06 00:55:37;;;;;;;10.80;6.67;;;-0.20;99.90;0.50;96903.00;;;;5107175;28;20425;-65
2022/03/06 00:58:26;;;;;;;11.93;7.63;;;-0.20;99.90;0.50;96901.00;;;;5106849;27;20421;-65
2022/03/06 01:01:16;;;;;;;13.80;8.47;;;-0.20;99.90;0.40;96897.00;;;;5093407;28;20428;-65
2022/03/06 01:04:05;;;;;;;14.03;8.97;;;-0.20;99.90;0.60;96901.00;;;;5097010;28;20437;-65
2022/03/06 01:06:54;;;;;;;13.63;7.93;;;-0.10;99.90;0.60;96900.00;;;;5101902;28;20418;-65
2022/03/06 01:09:43;;;;;;;12.47;8.60;;;-0.10;99.90;0.50;96896.00;;;;5100590;28;20425;-65
2022/03/06 01:12:32;;;;;;;9.23;6.67;;;-0.10;99.90;0.50;96890.00;;;;5090758;28;20450;-65
2022/03/06 01:15:22;;;;;;;11.60;7.63;;;-0.10;99.90;0.40;96886.00;;;;5091781;28;20449;-65
2022/03/06 01:18:12;;;;;;;15.87;7.37;;;-0.10;99.90;0.40;96884.00;;;;5100169;28;20776;-65
2022/03/06 01:21:01;;;;;;;13.07;8.23;;;-0.10;99.90;0.20;96884.00;;;;5092103;28;20421;-65
2022/03/06 01:23:50;;;;;;;15.20;9.43;;;-0.20;99.90;0.10;96881.00;;;;5093319;28;20469;-65
2022/03/06 01:26:38;;;;;;;14.23;8.70;;;-0.20;99.90;0.10;96873.00;;;;5091479;28;20452;-65
2022/03/06 01:29:27;;;;;;;15.30;9.17;;;-0.30;99.90;0.20;96872.00;;;;5091785;28;20432;-65
2022/03/06 01:32:16;;;;;;;18.23;9.93;;;-0.30;99.90;0.30;96873.00;;;;5091877;28;20460;-65
2022/03/06 01:35:07;;;;;;;10.60;7.60;;;-0.30;99.90;0.10;96867.00;;;;5101294;28;20441;-65
2022/03/06 01:37:56;;;;;;;14.07;9.97;;;-0.30;99.90;0.10;96868.00;;;;5099111;28;20432;-65
2022/03/06 01:40:45;;;;;;;11.97;8.53;;;-0.30;99.90;0.10;96871.00;;;;5096494;28;20425;-65
2022/03/06 01:43:34;;;;;;;13.97;7.80;;;-0.30;99.90;0.00;96863.00;;;;5097384;28;20433;-65
2022/03/06 01:46:23;;;;;;;13.27;8.07;;;-0.40;99.90;0.00;96870.00;;;;5101093;27;20438;-65
2022/03/06 01:49:12;;;;;;;15.03;9.23;;;-0.40;99.90;-0.10;96871.00;;;;5100014;27;20953;-65
2022/03/06 01:52:02;;;;;;;12.60;8.23;;;-0.50;99.90;0.10;96864.00;;;;5092775;28;20466;-65
2022/03/06 01:54:51;;;;;;;12.83;7.47;;;-0.50;99.90;0.10;96868.00;;;;5090072;28;20822;-65
2022/03/06 01:57:41;;;;;;;11.27;8.77;;;-0.50;99.90;-0.10;96869.00;;;;5100777;28;20426;-65
2022/03/06 02:00:36;;;;;;;11.57;7.57;;;-0.50;99.90;-0.10;96863.00;;;;5101008;28;20428;-65
2022/03/06 02:03:24;;;;;;;10.97;7.77;;;-0.50;99.90;-0.10;96865.00;;;;5091603;28;20481;-65
2022/03/06 02:06:15;;;;;;;12.73;8.37;;;-0.50;99.90;0.00;96862.00;;;;5103809;28;20444;-65
2022/03/06 02:09:06;;;;;;;15.67;7.73;;;-0.50;99.90;0.00;96862.00;;;;5099108;28;20818;-65
2022/03/06 02:15:00;;;;;;;10.90;7.90;;;-0.50;99.90;0.10;96862.00;;;;5106620;27;21056;-65
2022/03/06 02:17:48;;;;;;;12.10;7.90;;;-0.50;99.90;0.10;96862.00;;;;5104297;27;20428;-65
2022/03/06 02:20:38;;;;;;;8.97;6.70;;;-0.50;99.90;-0.10;96863.00;;;;5089452;28;20433;-65
2022/03/06 02:23:28;;;;;;;10.67;7.33;;;-0.50;99.90;-0.60;96856.00;;;;5089351;28;20449;-65
2022/03/06 02:26:17;;;;;;;8.07;6.37;;;-0.60;99.90;-0.40;96849.00;;;;5089748;28;20429;-65
2022/03/06 02:29:05;;;;;;;11.83;8.07;;;-0.70;99.90;-0.40;96846.00;;;;5102013;27;20408;-65
2022/03/06 02:31:54;;;;;;;11.00;7.50;;;-0.70;99.90;-0.30;96844.00;;;;5104728;28;20460;-65
2022/03/06 02:34:46;;;;;;;10.07;6.77;;;-0.70;99.90;-0.10;96858.00;;;;5092864;28;20492;-65
2022/03/06 02:37:35;;;;;;;14.83;8.80;;;-0.70;99.90;-0.10;96850.00;;;;5100941;28;20428;-65
2022/03/06 02:40:26;;;;;;;13.37;8.20;;;-0.60;99.90;0.00;96849.00;;;;5100138;28;20426;-65
2022/03/06 02:43:16;;;;;;;11.90;7.53;;;-0.60;99.90;0.00;96851.00;;;;5086819;28;20433;-65
2022/03/06 02:46:05;;;;;;;9.93;8.37;;;-0.60;99.90;0.00;96857.00;;;;5089744;28;20421;-65
2022/03/06 02:48:54;;;;;;;11.83;7.67;;;-0.60;99.90;-0.20;96849.00;;;;5089715;28;20424;-65
2022/03/06 02:51:43;;;;;;;10.90;8.67;;;-0.60;99.90;-0.40;96841.00;;;;5097330;28;20465;-65
2022/03/06 02:54:32;;;;;;;10.90;7.07;;;-0.60;99.90;-0.30;96843.00;;;;5092991;28;20457;-64
2022/03/06 02:57:22;;;;;;;15.27;7.07;;;-0.70;99.90;-0.30;96846.00;;;;5092223;28;20421;-65
2022/03/06 03:00:14;;;;;;;11.27;7.27;;;-0.70;99.90;-0.30;96849.00;;;;5103548;28;20418;-65
2022/03/06 03:03:03;;;;;;;12.97;8.57;;;-0.70;99.90;-0.10;96849.00;;;;5090778;28;21025;-65
2022/03/06 03:05:52;;;;;;;10.23;7.00;;;-0.60;99.90;0.00;96850.00;;;;5091098;28;20432;-65
2022/03/06 03:08:41;;;;;;;10.73;7.60;;;-0.60;99.90;0.10;96857.00;;;;5096333;28;20426;-66
2022/03/06 03:11:31;;;;;;;9.80;6.77;;;-0.60;99.90;0.00;96867.00;;;;5099225;28;20471;-65
2022/03/06 03:14:21;;;;;;;13.33;7.87;;;-0.50;99.90;-0.10;96854.00;;;;5095516;28;20468;-64
2022/03/06 03:17:10;;;;;;;13.67;7.77;;;-0.50;99.90;-0.30;96850.00;;;;5099462;28;20429;-65
2022/03/06 03:19:59;;;;;;;11.20;7.17;;;-0.60;99.90;-0.30;96844.00;;;;5089569;28;20426;-64
2022/03/06 03:22:48;;;;;;;12.10;8.83;;;-0.60;99.90;-0.10;96853.00;;;;5092639;28;20425;-65
2022/03/06 03:25:36;;;;;;;12.77;8.50;;;-0.60;99.90;-0.10;96861.00;;;;5094158;28;20450;-65
2022/03/06 03:28:25;;;;;;;11.73;7.17;;;-0.60;99.90;0.00;96852.00;;;;5090697;28;20421;-65
2022/03/06 03:31:15;;;;;;;10.20;7.80;;;-0.60;99.90;0.20;96855.00;;;;5094419;28;20433;-64
2022/03/06 03:34:04;;;;;;;9.27;7.60;;;-0.50;99.90;0.10;96848.00;;;;5097470;28;20448;-65
2022/03/06 03:36:53;;;;;;;9.33;6.47;;;-0.50;99.90;0.00;96858.00;;;;5088466;28;20418;-65
2022/03/06 03:39:41;;;;;;;10.10;7.77;;;-0.50;99.90;-0.10;96856.00;;;;5102284;28;20434;-65
2022/03/06 03:42:30;;;;;;;9.90;6.17;;;-0.50;99.90;-0.30;96854.00;;;;5092892;28;20422;-65
2022/03/06 03:45:19;;;;;;;11.60;7.53;;;-0.50;99.90;-0.30;96854.00;;;;5093190;28;20451;-66
2022/03/06 03:48:09;;;;;;;14.77;8.20;;;-0.60;99.90;-0.20;96856.00;;;;5094176;28;20429;-65
2022/03/06 03:50:58;;;;;;;9.17;7.50;;;-0.60;99.90;-0.20;96851.00;;;;5094008;28;20440;-65
2022/03/06 03:53:47;;;;;;;11.07;6.87;;;-0.60;99.90;-0.30;96848.00;;;;5091876;28;20488;-64
2022/03/06 03:56:36;;;;;;;12.83;8.90;;;-0.70;99.90;-0.40;96850.00;;;;5090403;28;20422;-65
2022/03/06 03:59:25;;;;;;;12.33;7.83;;;-0.70;99.90;-0.30;96847.00;;;;5098644;28;20417;-65
2022/03/06 04:02:14;;;;;;;10.60;7.13;;;-0.70;99.90;-0.30;96852.00;;;;5102902;28;20429;-66
2022/03/06 04:05:05;;;;;;;12.57;8.00;;;-0.70;99.90;-0.20;96857.00;;;;5094144;28;20438;-64
2022/03/06 04:07:54;;;;;;;9.53;7.00;;;-0.70;99.90;0.00;96855.00;;;;5100738;28;20442;-64
2022/03/06 04:10:42;;;;;;;15.33;7.97;;;-0.70;99.90;0.10;96864.00;;;;5098913;28;20432;-65
2022/03/06 04:13:31;;;;;;;12.27;7.57;;;-0.70;99.90;0.10;96857.00;;;;5092281;28;21007;-65
2022/03/06 04:16:20;;;;;;;10.67;7.23;;;-0.60;99.90;0.10;96869.00;;;;5092091;28;20429;-64
2022/03/06 04:19:09;;;;;;;12.83;7.57;;;-0.60;99.90;0.20;96871.00;;;;5099741;28;20573;-65
2022/03/06 04:22:00;;;;;;;19.57;8.20;;;-0.60;99.90;0.10;96869.00;;;;5091490;28;20440;-65
2022/03/06 04:24:48;;;;;;;8.83;7.83;;;-0.60;99.90;-0.10;96871.00;;;;5093563;28;20459;-65
2022/03/06 04:27:37;;;;;;;17.80;8.27;;;-0.60;99.90;-0.10;96877.00;;;;5093781;28;20418;-65
2022/03/06 04:30:26;;;;;;;17.20;6.97;;;-0.60;99.90;0.00;96877.00;;;;5090026;28;20429;-64
2022/03/06 04:33:16;;;;;;;19.60;7.03;;;-0.60;99.90;0.10;96877.00;;;;5093705;28;20465;-64
2022/03/06 04:36:05;;;;;;;16.33;7.33;;;-0.50;99.90;-0.10;96874.00;;;;5092414;28;20422;-65
2022/03/06 04:38:56;;;;;;;12.07;8.17;;;-0.60;99.90;-0.20;96874.00;;;;5101657;27;20896;-65
2022/03/06 04:41:45;;;;;;;14.80;9.07;;;-0.60;99.90;-0.50;96875.00;;;;5106449;28;20432;-65
2022/03/06 04:44:33;;;;;;;12.60;8.03;;;-0.70;99.90;-0.70;96863.00;;;;5091658;28;20461;-64
2022/03/06 04:47:22;;;;;;;13.07;7.37;;;-0.80;99.90;-0.40;96871.00;;;;5093424;28;20444;-65
2022/03/06 04:50:11;;;;;;;11.03;7.67;;;-0.80;99.90;-0.30;96866.00;;;;5093067;28;20422;-65
2022/03/06 04:53:00;;;;;;;10.83;7.47;;;-0.80;99.90;-0.30;96876.00;;;;5091932;28;20456;-65
2022/03/06 04:55:50;;;;;;;13.73;8.13;;;-0.80;99.90;-0.30;96866.00;;;;5091480;28;20426;-64
2022/03/06 04:58:38;;;;;;;8.60;6.57;;;-0.80;99.90;-0.30;96869.00;;;;5091916;28;20433;-64
2022/03/06 05:01:27;;;;;;;12.83;7.47;;;-0.80;99.90;-0.40;96865.00;;;;5096484;28;20421;-65
2022/03/06 05:04:16;;;;;;;12.63;7.53;;;-0.80;99.90;-0.50;96875.00;;;;5090589;28;20817;-65
2022/03/06 05:07:05;;;;;;;9.83;8.00;;;-0.80;99.90;-0.30;96866.00;;;;5098930;28;20413;-65
2022/03/06 05:09:54;;;;;;;9.43;7.10;;;-0.80;99.90;-0.10;96880.00;;;;5109487;28;20421;-65
2022/03/06 05:12:44;;;;;;;10.83;7.90;;;-0.80;99.90;-0.10;96873.00;;;;5089052;28;20465;-64
2022/03/06 05:15:33;;;;;;;13.07;8.37;;;-0.70;99.90;-0.10;96883.00;;;;5096382;28;20413;-65
2022/03/06 05:18:22;;;;;;;13.70;7.60;;;-0.70;99.90;-0.10;96884.00;;;;5109601;28;20469;-65
2022/03/06 05:21:11;;;;;;;9.50;7.30;;;-0.70;99.90;-0.50;96879.00;;;;5102272;28;20426;-65
2022/03/06 05:23:59;;;;;;;9.60;7.60;;;-0.70;99.90;-0.40;96883.00;;;;5089875;28;20457;-65
2022/03/06 05:26:48;;;;;;;10.20;6.50;;;-0.80;99.90;-0.30;96879.00;;;;5088492;28;20426;-66
2022/03/06 05:29:38;;;;;;;11.63;8.00;;;-0.80;99.90;-0.10;96892.00;;;;5090853;28;20443;-66
2022/03/06 05:32:27;;;;;;;10.27;7.47;;;-0.80;99.90;-0.10;96894.00;;;;5101251;28;20417;-66
2022/03/06 05:35:16;;;;;;;8.47;6.63;;;-0.70;99.90;-0.10;96898.00;;;;5088670;28;20445;-65
2022/03/06 05:38:05;;;;;;;9.17;6.57;;;-0.70;99.90;0.00;96894.00;;;;5091158;27;20426;-66
2022/03/06 05:40:53;;;;;;;14.30;7.70;;;-0.70;99.90;0.00;96899.00;;;;5098179;27;20424;-64
2022/03/06 05:43:42;;;;;;;10.30;6.57;;;-0.70;99.90;0.00;96904.00;;;;5095200;28;20449;-65
2022/03/06 05:46:32;;;;;;;10.80;7.67;;;-0.70;99.90;0.00;96904.00;;;;5089602;28;20433;-66
2022/03/06 05:49:21;;;;;;;9.33;7.17;;;-0.70;99.90;0.10;96908.00;;;;5095987;28;20954;-65
2022/03/06 05:52:10;;;;;;;15.20;8.30;;;-0.60;99.90;0.00;96912.00;;;;5102559;28;20421;-64
2022/03/06 05:54:59;;;;;;;13.87;8.67;;;-0.60;99.90;0.10;96902.00;;;;5106047;28;20476;-65
2022/03/06 05:57:47;;;;;;;12.13;9.37;;;-0.60;99.90;0.20;96914.00;;;;5101318;27;20804;-66
2022/03/06 06:00:36;;;;;;;11.93;7.43;;;-0.60;99.90;0.10;96911.00;;;;5109399;27;20433;-65
2022/03/06 06:03:26;;;;;;;12.57;7.53;;;-0.50;99.90;-0.10;96914.00;;;;5109534;27;20456;-66
2022/03/06 06:06:15;;;;;;;9.77;6.90;;;-0.50;99.90;0.00;96914.00;;;;5092760;28;20427;-66
2022/03/06 06:09:04;;;;;;;11.60;8.53;;;-0.50;99.90;0.00;96917.00;;;;5099339;28;20432;-65
2022/03/06 06:11:53;;;;;;;13.57;8.50;;;-0.50;99.90;0.00;96920.00;;;;5095020;28;20437;-65
2022/03/06 06:14:42;;;;;;;11.30;8.43;;;-0.50;99.90;0.10;96916.00;;;;5088773;28;20472;-66
2022/03/06 06:17:31;;;;;;;9.27;7.50;;;-0.50;99.90;0.20;96916.00;;;;5088687;28;20843;-65
2022/03/06 06:20:21;;;;;;;11.73;7.70;;;-0.50;99.90;0.20;96917.00;;;;5116610;27;20813;-66
2022/03/06 06:23:10;;;;;;;13.70;8.03;;;-0.50;99.90;0.30;96919.00;;;;5103980;27;20431;-65
2022/03/06 06:25:58;;;;;;;9.40;7.83;;;-0.40;99.90;0.30;96920.00;;;;5102944;28;20437;-66
2022/03/06 06:28:52;;;;;;;17.37;9.47;;;-0.40;99.90;0.30;96923.00;;;;5097189;28;20422;-65
2022/03/06 06:31:41;;;;;;;10.73;8.00;;;-0.30;99.90;0.20;96923.00;;;;5094748;28;20438;-65
2022/03/06 06:34:32;;;;;;;14.27;8.50;;;-0.30;99.90;0.30;96929.00;;;;5097593;28;20487;-66
2022/03/06 06:37:22;;;;;;;9.53;6.80;;;-0.30;99.90;0.30;96925.00;;;;5100975;28;20435;-66
2022/03/06 06:40:11;;;;;;;9.50;6.93;;;-0.30;99.90;0.20;96924.00;;;;5110090;28;20430;-66
2022/03/06 06:43:00;;;;;;;11.77;7.17;;;-0.30;99.90;0.10;96934.00;;;;5089709;28;20433;-66
2022/03/06 06:45:49;;;;;;;12.77;9.50;;;-0.30;99.90;-0.10;96927.00;;;;5103558;28;20425;-65
2022/03/06 06:48:38;;;;;;;13.20;7.70;;;-0.40;99.90;-0.20;96920.00;;;;5095507;28;20830;-65
2022/03/06 06:51:27;;;;;;;13.30;9.00;;;-0.40;99.90;0.10;96943.00;;;;5102473;28;20424;-66
2022/03/06 06:54:17;;;;;;;15.47;11.60;;;-0.40;99.90;0.20;96947.00;;;;5096006;28;20476;-66
2022/03/06 06:57:06;;;;;;;19.73;13.37;;;-0.40;99.90;0.30;96944.00;;;;5102325;28;20413;-66
2022/03/06 06:59:54;;;;;;;17.93;11.53;;;-0.30;99.90;0.50;96949.00;;;;5104244;28;20424;-65
2022/03/06 07:02:44;;;;;;;14.77;10.67;;;-0.30;99.90;0.70;96938.00;;;;5089570;28;20452;-66
2022/03/06 07:05:33;;;;;;;13.93;9.77;;;-0.20;99.90;0.90;96965.00;;;;5090116;28;22130;-66
2022/03/06 07:08:24;;;;;;;11.97;8.57;;;-0.10;99.90;1.00;96973.00;;;;5097441;28;20956;-65
2022/03/06 07:11:14;;;;;;;10.83;8.50;;;0.00;99.90;1.00;96966.00;;;;5094729;28;20420;-66
2022/03/06 07:14:03;;;;;;;13.77;9.67;;;0.10;99.90;1.00;96959.00;;;;5096317;28;20919;-66
2022/03/06 07:16:52;;;;;;;17.57;10.03;;;0.10;99.90;1.10;96954.00;;;;5093869;28;20417;-65
2022/03/06 07:19:41;;;;;;;17.37;10.17;;;0.20;99.90;1.20;96964.00;;;;5092757;28;20441;-66
2022/03/06 07:22:30;;;;;;;14.40;10.83;;;0.30;99.90;1.30;96963.00;;;;5094702;28;20448;-66
2022/03/06 07:25:20;;;;;;;20.10;12.23;;;0.40;99.90;1.40;96966.00;;;;5102165;28;20448;-66
2022/03/06 07:28:11;;;;;;;16.93;12.00;;;0.40;99.90;1.50;96965.00;;;;5105729;28;20432;-66
2022/03/06 07:31:00;;;;;;;16.47;11.40;;;0.50;99.90;1.50;96979.00;;;;5106829;28;20443;-66
2022/03/06 07:33:50;;;;;;;17.23;11.67;;;0.60;99.90;1.50;96983.00;;;;5092210;28;20843;-66
2022/03/06 07:36:39;;;;;;;20.37;10.97;;;0.60;99.90;1.60;96973.00;;;;5091755;28;20425;-66
2022/03/06 07:39:27;;;;;;;21.27;11.70;;;0.70;99.90;1.70;96976.00;;;;5098007;28;20952;-66
2022/03/06 07:42:16;;;;;;;20.90;10.90;;;0.70;99.90;1.70;96974.00;;;;5096257;28;20447;-66
2022/03/06 07:45:09;;;;;;;19.10;13.10;;;0.80;99.90;1.80;96980.00;;;;5109665;28;20448;-66
2022/03/06 07:51:59;;;;;;;14.40;9.83;;;0.90;99.90;1.90;96976.00;;;;5087011;28;20498;-66
2022/03/06 07:54:59;;;;;;;19.77;12.17;;;1.00;99.90;2.00;96966.00;;;;5098864;28;20477;-66
2022/03/06 07:58:28;;;;;;;17.13;12.00;;;1.10;99.90;2.00;96971.00;;;;5083807;27;20702;-65
2022/03/06 08:01:43;;;;;;;25.30;14.23;;;1.10;99.90;1.50;96969.00;;;;5088628;28;20777;-65
2022/03/06 08:05:09;;;;;;;25.77;15.40;;;1.20;99.90;1.30;96962.00;;;;5112277;27;21247;-65
2022/03/06 08:08:39;;;;;;;28.17;20.27;;;1.10;99.90;1.40;96957.00;;;;5130698;27;20478;-65
2022/03/06 08:11:46;;;;;;;21.03;12.57;;;1.10;99.90;1.40;96947.00;;;;5121867;27;20438;-65
2022/03/06 08:14:46;;;;;;;16.40;12.33;;;1.10;99.90;1.50;96941.00;;;;5110475;27;20468;-68
2022/03/06 08:31:00;;;;;;;14.47;10.27;;;1.40;99.90;1.90;96942.00;;;;5020356;28;20441;-66
2022/03/06 08:35:07;;;;;;;18.40;10.90;;;1.50;99.90;2.80;96939.00;;;;5027428;28;20502;-65
2022/03/06 08:39:10;;;;;;;18.60;11.57;;;1.80;99.90;3.30;96944.00;;;;5024771;28;20429;-65
2022/03/06 08:56:29;;;;;;;17.87;12.17;;;3.30;99.90;5.10;96934.00;;;;4753610;30;20468;-65
2022/03/06 09:04:22;;;;;;;16.80;11.30;;;5.10;99.90;5.10;96943.00;;;;4838484;29;20768;-66
2022/03/06 09:07:13;;;;;;;18.23;13.40;;;4.10;99.90;5.20;96940.00;;;;4907480;29;20473;-66
2022/03/06 09:10:05;;;;;;;19.20;12.33;;;4.10;99.90;5.60;96930.00;;;;4896340;29;20958;-67
2022/03/06 09:13:05;;;;;;;22.67;13.03;;;4.20;99.90;5.20;96924.00;;;;4902944;29;20869;-66
2022/03/06 09:16:00;;;;;;;16.33;12.57;;;4.30;99.90;5.30;96928.00;;;;4896005;29;20450;-66
2022/03/06 09:18:51;;;;;;;27.83;12.93;;;4.40;99.90;5.10;96922.00;;;;4916522;28;20455;-66
2022/03/06 09:21:43;;;;;;;17.77;11.80;;;4.30;99.90;5.10;96929.00;;;;4959907;28;20450;-66
2022/03/06 09:24:35;;;;;;;25.90;12.40;;;4.30;99.90;5.10;96927.00;;;;4953103;28;20455;-66
2022/03/06 09:27:24;;;;;;;18.30;11.67;;;4.20;99.90;5.20;96933.00;;;;4956036;28;20482;-66
2022/03/06 09:30:17;;;;;;;15.70;11.23;;;4.20;99.90;5.10;96934.00;;;;4950414;28;20579;-66
2022/03/06 09:33:07;;;;;;;20.57;10.83;;;4.20;99.90;5.10;96917.00;;;;5004108;28;20479;-66
2022/03/06 09:35:56;;;;;;;13.60;9.57;;;4.10;99.90;5.10;96928.00;;;;5041892;28;20517;-66
2022/03/06 09:38:45;;;;;;;16.93;11.07;;;4.10;99.90;4.80;96917.00;;;;5042595;28;20808;-66
2022/03/06 09:41:39;;;;;;;15.50;11.27;;;4.20;99.40;5.30;96910.00;;;;5104946;28;20424;-66
2022/03/06 09:44:30;;;;;;;17.07;10.50;;;4.20;99.50;5.30;96919.00;;;;5111781;27;20445;-66
2022/03/06 09:47:25;;;;;;;14.73;9.47;;;4.20;99.10;5.00;96912.00;;;;5106626;27;20487;-66
2022/03/06 09:50:17;;;;;;;15.23;10.53;;;4.20;97.70;4.50;96919.00;;;;5109717;27;20416;-65
2022/03/06 09:53:06;;;;;;;16.87;10.63;;;4.30;95.90;5.10;96919.00;;;;5106598;28;20486;-66
2022/03/06 09:55:55;;;;;;;13.67;11.00;;;4.20;96.30;5.30;96925.00;;;;5109570;27;20443;-66
2022/03/06 09:58:44;;;;;;;17.17;11.40;;;4.20;96.70;5.30;96924.00;;;;5106945;28;20198;-66
2022/03/06 10:01:33;;;;;;;14.73;10.13;;;4.20;96.20;5.30;96919.00;;;;5105413;28;20448;-66
2022/03/06 10:04:26;;;;;;;15.80;11.23;;;4.20;96.30;5.40;96928.00;;;;5114695;27;20436;-66
2022/03/06 10:07:19;;;;;;;20.23;11.87;;;4.80;96.70;5.40;96912.00;;;;5106738;28;20222;-66
2022/03/06 10:10:08;;;;;;;17.60;10.80;;;4.30;96.30;5.00;96910.00;;;;5103536;27;20195;-66
2022/03/06 10:12:57;;;;;;;16.40;11.20;;;4.40;95.40;4.90;96903.00;;;;5108571;27;20207;-66
2022/03/06 10:16:14;;;;;;;14.83;10.57;;;4.40;94.40;5.00;96901.00;;;;5109833;28;20758;-66
2022/03/06 10:19:04;;;;;;;15.67;11.40;;;4.40;94.60;5.50;96914.00;;;;5059972;27;20206;-66
2022/03/06 10:21:54;;;;;;;18.43;10.33;;;4.40;95.00;5.70;96915.00;;;;5100857;27;20572;-66
2022/03/06 10:24:47;;;;;;;18.47;10.53;;;4.40;95.10;5.40;96905.00;;;;5100088;27;20482;-66
2022/03/06 10:27:53;;;;;;;20.83;11.83;;;4.50;94.10;5.60;96905.00;;;;5103828;28;20230;-66
2022/03/06 10:30:42;;;;;;;17.23;10.67;;;4.50;93.90;6.00;96911.00;;;;5093168;28;20195;-66
2022/03/06 10:33:31;;;;;;;14.63;11.00;;;4.60;94.00;5.90;96913.00;;;;5097040;28;20740;-66
2022/03/06 10:36:32;;;;;;;18.97;12.07;;;4.70;93.80;6.20;96902.00;;;;5111698;27;20436;-66
2022/03/06 10:39:24;;;;;;;12.97;8.57;;;4.80;93.80;6.20;96896.00;;;;5100598;28;20241;-66
2022/03/06 10:42:22;;;;;;;16.97;10.63;;;5.00;93.10;6.00;96901.00;;;;5097542;28;20195;-67
2022/03/06 10:45:25;;;;;;;20.13;11.60;;;5.10;91.40;6.10;96908.00;;;;5110045;27;20226;-66
2022/03/06 10:48:15;;;;;;;21.33;13.00;;;5.10;91.00;6.20;96907.00;;;;5110108;27;20902;-66
2022/03/06 10:51:09;;;;;;;16.63;11.17;;;5.10;91.30;6.60;96908.00;;;;5104022;27;20203;-66
2022/03/06 10:54:03;;;;;;;18.03;10.07;;;5.20;91.10;6.60;96901.00;;;;5098080;28;20226;-67
2022/03/06 10:56:55;;;;;;;17.30;11.03;;;5.30;90.60;6.30;96890.00;;;;5108869;28;20221;-66
2022/03/06 10:59:46;;;;;;;23.67;14.63;;;5.40;89.00;6.40;96893.00;;;;5100418;27;20210;-66
2022/03/06 11:02:37;;;;;;;16.93;11.27;;;5.40;89.20;6.30;96879.00;;;;5106877;28;20292;-66
2022/03/06 11:05:31;;;;;;;20.00;12.93;;;5.50;88.60;6.30;96881.00;;;;5107789;28;20221;-66
2022/03/06 11:08:21;;;;;;;15.07;10.53;;;5.40;87.20;5.50;96866.00;;;;5102101;28;20218;-66
2022/03/06 11:11:12;;;;;;;16.30;10.43;;;5.20;84.40;5.50;96868.00;;;;5095609;28;20210;-66
2022/03/06 11:14:03;;;;;;;21.37;11.90;;;5.10;83.60;5.90;96870.00;;;;5117314;27;20682;-66
2022/03/06 11:16:54;;;;;;;18.43;9.27;;;5.00;85.10;5.70;96865.00;;;;5102022;28;20205;-66
2022/03/06 11:19:46;;;;;;;20.20;11.37;;;5.00;84.40;6.50;96850.00;;;;5107788;28;20190;-66
2022/03/06 11:22:46;;;;;;;17.20;10.27;;;5.00;85.60;6.50;96841.00;;;;5105795;27;20233;-66
2022/03/06 11:25:48;;;;;;;12.80;10.40;;;5.30;84.80;7.70;96857.00;;;;5098093;28;20206;-66
2022/03/06 11:28:55;;;;;;;15.30;10.40;;;5.80;86.40;8.20;96859.00;;;;5105666;27;20226;-67
2022/03/06 11:31:50;;;;;;;17.33;9.90;;;6.20;84.90;8.00;96865.00;;;;5107370;27;20190;-66
2022/03/06 11:34:41;;;;;;;16.00;9.77;;;6.60;82.20;6.70;96844.00;;;;5108537;28;20214;-66
2022/03/06 11:37:30;;;;;;;12.30;9.83;;;6.70;78.50;6.60;96842.00;;;;5103905;28;20202;-66
2022/03/06 11:40:48;;;;;;;11.97;9.13;;;6.60;76.20;7.20;96849.00;;;;5101058;28;20562;-66
2022/03/06 11:43:43;;;;;;;17.67;11.40;;;6.50;77.20;6.60;96850.00;;;;5107404;27;20957;-66
2022/03/06 11:46:40;;;;;;;20.77;10.90;;;6.40;76.50;5.80;96847.00;;;;5099272;28;20214;-66
2022/03/06 11:49:37;;;;;;;15.80;10.40;;;6.10;75.40;5.00;96837.00;;;;5104794;28;20587;-66
2022/03/06 11:52:27;;;;;;;15.33;10.07;;;5.60;75.00;5.00;96831.00;;;;5097864;28;20191;-66
2022/03/06 11:55:32;;;;;;;14.03;9.40;;;5.10;76.20;4.60;96835.00;;;;5107953;28;20214;-66
2022/03/06 11:58:53;;;;;;;16.00;10.00;;;4.70;77.90;3.80;96825.00;;;;5099851;28;20213;-66
2022/03/06 12:01:45;;;;;;;11.77;8.70;;;4.30;77.30;4.60;96826.00;;;;5105253;28;20194;-66
2022/03/06 12:04:40;;;;;;;15.90;9.50;;;4.10;77.60;5.20;96823.00;;;;5119164;28;20438;-66
2022/03/06 12:07:28;;;;;;;12.93;9.17;;;4.10;79.00;5.50;96825.00;;;;5112318;28;20428;-66
2022/03/06 12:10:20;;;;;;;12.97;9.80;;;4.20;80.20;5.70;96820.00;;;;5109868;28;20807;-66
2022/03/06 12:13:18;;;;;;;19.60;10.53;;;4.40;80.30;5.80;96828.00;;;;5120532;28;20421;-66
2022/03/06 12:16:09;;;;;;;15.03;8.87;;;4.50;80.10;5.50;96826.00;;;;5104682;28;20421;-67
2022/03/06 12:19:03;;;;;;;15.37;9.00;;;4.60;79.50;5.00;96822.00;;;;5104805;28;20203;-66
2022/03/06 12:21:53;;;;;;;13.20;8.90;;;4.60;78.60;5.30;96819.00;;;;5108915;28;20441;-67
2022/03/06 12:24:44;;;;;;;16.53;10.13;;;4.50;78.30;5.60;96820.00;;;;5112478;28;20226;-67
2022/03/06 12:27:34;;;;;;;11.33;7.67;;;4.50;78.70;5.50;96808.00;;;;5108232;28;20429;-66
2022/03/06 12:30:25;;;;;;;13.27;8.83;;;4.50;77.90;5.70;96819.00;;;;5105664;28;20198;-66
2022/03/06 12:33:41;;;;;;;13.87;7.87;;;4.50;78.70;5.60;96818.00;;;;5107133;28;20991;-66
2022/03/06 12:36:30;;;;;;;12.13;8.43;;;4.50;77.10;5.50;96817.00;;;;5066057;28;20839;-66
2022/03/06 12:39:21;;;;;;;13.10;9.20;;;4.50;76.90;5.50;96805.00;;;;5111788;28;20431;-66
2022/03/06 12:42:11;;;;;;;13.87;9.93;;;4.50;75.80;4.70;96806.00;;;;5093947;28;20417;-66
2022/03/06 12:45:02;;;;;;;12.73;9.17;;;4.40;74.30;5.00;96796.00;;;;5102275;27;20808;-66
2022/03/06 12:47:51;;;;;;;12.30;8.50;;;4.30;75.40;5.10;96799.00;;;;5111785;27;20494;-66
2022/03/06 12:50:43;;;;;;;12.57;8.53;;;4.30;74.90;5.00;96797.00;;;;5109152;27;20437;-66
2022/03/06 12:53:32;;;;;;;13.33;9.03;;;4.20;75.00;4.90;96796.00;;;;5113473;27;20950;-66
2022/03/06 12:56:32;;;;;;;13.00;8.90;;;4.20;74.60;4.10;96790.00;;;;5113976;27;20432;-66
2022/03/06 12:59:21;;;;;;;17.43;9.73;;;4.10;75.10;4.30;96793.00;;;;5107929;28;20417;-66
2022/03/06 13:02:11;;;;;;;12.00;9.13;;;4.00;76.20;4.30;96780.00;;;;5095619;28;20416;-66
2022/03/06 13:05:00;;;;;;;14.40;8.37;;;3.90;75.90;4.20;96788.00;;;;5105572;28;20464;-66
2022/03/06 13:07:50;;;;;;;13.33;9.20;;;3.90;75.50;4.20;96777.00;;;;5113195;27;20475;-66
2022/03/06 13:10:39;;;;;;;15.87;10.03;;;3.80;75.30;4.40;96776.00;;;;5108075;28;20468;-66
2022/03/06 13:13:29;;;;;;;13.33;8.80;;;3.80;75.10;4.60;96775.00;;;;5113006;27;20459;-66
2022/03/06 13:16:25;;;;;;;11.80;8.67;;;3.80;75.50;4.20;96781.00;;;;5098880;27;20433;-66
2022/03/06 13:19:15;;;;;;;12.73;8.47;;;3.90;74.80;4.40;96784.00;;;;5114244;27;20429;-66
2022/03/06 13:22:07;;;;;;;13.33;8.23;;;4.60;75.00;4.70;96784.00;;;;5111041;27;20942;-66
2022/03/06 13:24:59;;;;;;;15.10;8.93;;;4.00;74.10;4.60;96781.00;;;;5103354;28;20477;-66